createdAt,value
2022-11-10T00:02:27.363Z,2.20
2022-11-10T00:05:15.794Z,4.00
2022-11-10T00:08:03.847Z,4.67
2022-11-10T00:10:59.255Z,2.13
2022-11-10T00:14:03.271Z,4.10
2022-11-10T00:17:01.933Z,3.03
2022-11-10T00:19:48.125Z,4.63
2022-11-10T00:22:34.974Z,3.60
2022-11-10T00:25:21.370Z,1.70
2022-11-10T00:28:07.599Z,4.60
2022-11-10T00:30:55.630Z,1.93
2022-11-10T00:33:43.865Z,3.20
2022-11-10T00:36:29.934Z,3.27
2022-11-10T00:39:16.427Z,3.07
2022-11-10T00:42:02.739Z,2.60
2022-11-10T00:44:49.190Z,1.40
2022-11-10T00:47:37.058Z,1.83
2022-11-10T00:50:23.418Z,5.47
2022-11-10T00:53:09.748Z,2.80
2022-11-10T00:55:56.205Z,1.53
2022-11-10T00:58:43.284Z,2.00
2022-11-10T01:01:29.857Z,5.00
2022-11-10T01:04:17.899Z,6.27
2022-11-10T01:07:04.430Z,8.13
2022-11-10T01:09:50.906Z,1.53
2022-11-10T01:12:37.570Z,8.13
2022-11-10T01:15:27.578Z,4.33
2022-11-10T01:18:14.400Z,7.17
2022-11-10T01:21:02.780Z,4.60
2022-11-10T01:23:49.038Z,6.07
2022-11-10T01:26:35.518Z,2.83
2022-11-10T01:29:21.920Z,4.43
2022-11-10T01:32:08.392Z,1.50
2022-11-10T01:34:54.652Z,3.60
2022-11-10T01:37:42.520Z,6.17
2022-11-10T01:40:29.177Z,5.13
2022-11-10T01:43:15.917Z,2.60
2022-11-10T01:46:03.561Z,4.13
2022-11-10T01:52:54.976Z,1.97
2022-11-10T01:55:44.115Z,4.00
2022-11-10T01:58:34.434Z,2.87
2022-11-10T02:01:21.035Z,4.17
2022-11-10T02:04:09.346Z,5.57
2022-11-10T02:06:55.992Z,2.57
2022-11-10T02:09:43.479Z,4.93
2022-11-10T02:12:37.781Z,4.47
2022-11-10T02:15:24.286Z,6.97
2022-11-10T02:18:10.736Z,4.33
2022-11-10T02:20:58.206Z,4.47
2022-11-10T02:23:48.010Z,4.30
2022-11-10T02:26:35.426Z,6.10
2022-11-10T02:29:22.861Z,6.30
2022-11-10T02:32:08.971Z,4.17
2022-11-10T02:34:55.459Z,6.00
2022-11-10T02:37:43.204Z,4.13
2022-11-10T02:40:29.602Z,2.27
2022-11-10T02:43:18.079Z,7.83
2022-11-10T02:46:04.270Z,3.40
2022-11-10T02:48:50.563Z,3.67
2022-11-10T02:51:37.162Z,2.83
2022-11-10T02:54:25.060Z,2.33
2022-11-10T02:57:11.527Z,3.70
2022-11-10T02:59:57.956Z,5.00
2022-11-10T03:02:44.489Z,1.93
2022-11-10T03:05:31.283Z,3.07
2022-11-10T03:08:17.899Z,5.23
2022-11-10T03:11:06.567Z,2.40
2022-11-10T03:14:01.344Z,5.23
2022-11-10T03:16:48.495Z,4.57
2022-11-10T03:19:35.290Z,4.90
2022-11-10T03:22:21.713Z,4.27
2022-11-10T03:25:09.365Z,6.47
2022-11-10T03:27:57.088Z,2.23
2022-11-10T03:30:44.147Z,1.70
2022-11-10T03:33:30.792Z,4.20
2022-11-10T03:36:17.313Z,1.37
2022-11-10T03:39:03.682Z,2.80
2022-11-10T03:41:50.106Z,2.97
2022-11-10T03:44:37.783Z,1.70
2022-11-10T03:47:24.096Z,3.57
2022-11-10T03:50:11.059Z,4.50
2022-11-10T03:52:57.275Z,5.43
2022-11-10T03:55:43.804Z,5.27
2022-11-10T03:58:30.277Z,3.33
2022-11-10T04:01:18.199Z,5.20
2022-11-10T04:04:04.597Z,5.47
2022-11-10T04:07:08.692Z,5.83
2022-11-10T04:09:55.013Z,5.07
2022-11-10T04:12:58.292Z,3.20
2022-11-10T04:15:44.770Z,4.23
2022-11-10T04:18:32.573Z,4.13
2022-11-10T04:21:18.999Z,7.87
2022-11-10T04:24:05.724Z,8.17
2022-11-10T04:26:51.985Z,4.67
2022-11-10T04:29:38.289Z,4.50
2022-11-10T04:32:24.732Z,6.00
2022-11-10T04:35:12.500Z,6.47
2022-11-10T04:37:58.859Z,3.53
2022-11-10T04:40:45.296Z,4.50
2022-11-10T04:43:32.498Z,5.57
2022-11-10T04:46:23.699Z,8.97
2022-11-10T04:49:10.842Z,5.43
2022-11-10T04:51:58.690Z,4.30
2022-11-10T04:54:45.147Z,4.87
2022-11-10T04:57:31.765Z,5.40
2022-11-10T05:00:19.215Z,2.30
2022-11-10T05:03:07.515Z,2.23
2022-11-10T05:05:53.698Z,2.80
2022-11-10T05:08:42.806Z,6.53
2022-11-10T05:11:28.960Z,5.20
2022-11-10T05:14:15.484Z,5.63
2022-11-10T05:17:01.831Z,4.03
2022-11-10T05:19:48.405Z,3.53
2022-11-10T05:22:34.757Z,8.17
2022-11-10T05:25:22.491Z,6.30
2022-11-10T05:28:10.612Z,4.37
2022-11-10T05:30:57.219Z,6.77
2022-11-10T05:33:43.472Z,6.10
2022-11-10T05:36:29.804Z,2.57
2022-11-10T05:39:16.353Z,2.97
2022-11-10T05:42:04.279Z,3.93
2022-11-10T05:44:50.480Z,2.90
2022-11-10T05:47:37.567Z,2.90
2022-11-10T05:50:24.940Z,2.03
2022-11-10T05:53:11.674Z,2.47
2022-11-10T05:55:57.949Z,2.63
2022-11-10T05:58:45.741Z,4.57
2022-11-10T06:01:32.115Z,6.30
2022-11-10T06:04:18.652Z,6.40
2022-11-10T06:07:05.257Z,4.37
2022-11-10T06:09:51.636Z,5.83
2022-11-10T06:12:37.944Z,3.20
2022-11-10T06:15:25.830Z,4.30
2022-11-10T06:18:12.501Z,4.80
2022-11-10T06:20:59.095Z,4.57
2022-11-10T06:23:45.503Z,4.63
2022-11-10T06:26:32.007Z,3.70
2022-11-10T06:29:22.840Z,4.40
2022-11-10T06:32:13.998Z,4.37
2022-11-10T06:35:00.952Z,3.47
2022-11-10T06:37:47.697Z,4.97
2022-11-10T06:40:35.072Z,5.70
2022-11-10T06:43:21.814Z,4.53
2022-11-10T06:46:08.492Z,3.53
2022-11-10T06:48:56.388Z,2.90
2022-11-10T06:51:42.711Z,3.53
2022-11-10T06:54:29.144Z,6.90
2022-11-10T06:57:15.568Z,3.97
2022-11-10T07:00:02.057Z,10.43
2022-11-10T07:02:48.670Z,8.97
2022-11-10T07:05:37.927Z,7.90
2022-11-10T07:08:24.334Z,8.27
2022-11-10T07:11:10.715Z,7.03
2022-11-10T07:13:57.102Z,4.60
2022-11-10T07:16:43.713Z,10.07
2022-11-10T07:19:32.486Z,3.33
2022-11-10T07:22:20.052Z,3.97
2022-11-10T07:25:07.153Z,3.07
2022-11-10T07:27:54.909Z,2.97
2022-11-10T07:30:41.795Z,2.17
2022-11-10T07:33:28.156Z,4.30
2022-11-10T07:36:14.851Z,3.43
2022-11-10T07:39:02.645Z,4.80
2022-11-10T07:41:52.466Z,3.40
2022-11-10T07:44:38.945Z,8.90
2022-11-10T07:47:25.637Z,2.07
2022-11-10T07:50:12.486Z,3.10
2022-11-10T07:53:06.894Z,3.57
2022-11-10T07:55:55.128Z,4.33
2022-11-10T07:58:41.473Z,6.17
2022-11-10T08:01:27.986Z,5.73
2022-11-10T08:04:14.414Z,2.70
2022-11-10T08:07:00.875Z,2.90
2022-11-10T08:09:47.192Z,5.00
2022-11-10T08:12:34.927Z,5.37
2022-11-10T08:15:21.361Z,5.83
2022-11-10T08:18:09.900Z,4.27
2022-11-10T08:20:56.476Z,5.70
2022-11-10T08:23:42.825Z,5.97
2022-11-10T08:26:29.274Z,3.27
2022-11-10T08:29:17.144Z,6.63
2022-11-10T08:32:03.386Z,6.50
2022-11-10T08:34:50.034Z,4.80
2022-11-10T08:37:36.453Z,3.67
2022-11-10T08:40:24.365Z,2.10
2022-11-10T08:43:11.812Z,1.80
2022-11-10T08:45:59.922Z,5.43
2022-11-10T08:48:46.201Z,3.13
2022-11-10T08:51:37.817Z,5.47
2022-11-10T08:54:25.083Z,5.97
2022-11-10T08:57:11.428Z,4.07
2022-11-10T08:59:57.956Z,5.37
2022-11-10T09:02:45.705Z,2.77
2022-11-10T09:05:32.163Z,2.07
2022-11-10T09:08:18.948Z,3.77
2022-11-10T09:11:05.510Z,5.03
2022-11-10T09:13:51.868Z,5.50
2022-11-10T09:16:38.351Z,4.83
2022-11-10T09:19:26.163Z,2.77
2022-11-10T09:22:12.675Z,1.43
2022-11-10T09:24:59.274Z,2.63
2022-11-10T09:27:45.652Z,5.60
2022-11-10T09:30:32.211Z,2.80
2022-11-10T09:33:18.911Z,4.50
2022-11-10T09:36:07.787Z,1.93
2022-11-10T09:38:54.060Z,1.53
2022-11-10T09:41:41.807Z,3.60
2022-11-10T09:44:30.388Z,3.17
2022-11-10T09:47:50.586Z,4.27
2022-11-10T09:50:37.271Z,3.53
2022-11-10T09:53:29.363Z,2.47
2022-11-10T09:56:22.500Z,2.03
2022-11-10T09:59:17.119Z,3.43
2022-11-10T10:02:06.717Z,3.77
2022-11-10T10:05:08.543Z,3.37
2022-11-10T10:08:01.777Z,0.80
2022-11-10T10:10:57.706Z,3.77
2022-11-10T10:14:04.646Z,1.87
2022-11-10T10:16:59.180Z,4.70
2022-11-10T10:19:51.716Z,3.97
2022-11-10T10:23:11.734Z,3.92
2022-11-10T10:26:00.266Z,2.13
2022-11-10T10:28:48.502Z,1.70
2022-11-10T10:31:40.371Z,2.13
2022-11-10T10:34:30.439Z,2.17
2022-11-10T10:37:24.868Z,3.47
2022-11-10T10:40:15.882Z,2.33
2022-11-10T10:43:04.622Z,1.45
2022-11-10T10:46:06.829Z,4.32
2022-11-10T10:49:27.525Z,3.15
2022-11-10T10:52:17.224Z,3.97
2022-11-10T10:55:08.647Z,3.10
2022-11-10T10:58:04.592Z,2.92
2022-11-10T11:00:55.099Z,3.60
2022-11-10T11:03:44.131Z,2.97
2022-11-10T11:06:31.391Z,4.30
2022-11-10T11:09:20.864Z,3.33
2022-11-10T11:12:09.660Z,3.47
2022-11-10T11:15:14.706Z,2.92
2022-11-10T11:18:05.360Z,2.67
2022-11-10T11:21:01.545Z,3.22
2022-11-10T11:24:11.989Z,2.08
2022-11-10T11:27:06.074Z,2.80
2022-11-10T11:30:05.823Z,2.38
2022-11-10T11:33:11.912Z,2.33
2022-11-10T11:36:04.055Z,2.20
2022-11-10T11:38:59.305Z,2.95
2022-11-10T11:41:54.203Z,3.75
2022-11-10T11:44:51.992Z,2.25
2022-11-10T11:47:54.743Z,2.25
2022-11-10T11:50:51.858Z,2.28
2022-11-10T11:53:56.636Z,5.65
2022-11-10T11:56:45.848Z,1.80
2022-11-10T11:59:58.508Z,2.83
2022-11-10T12:03:06.471Z,4.05
2022-11-10T12:06:04.535Z,2.05
2022-11-10T12:08:59.049Z,1.42
2022-11-10T12:12:00.298Z,4.15
2022-11-10T12:14:54.860Z,2.22
2022-11-10T12:17:51.460Z,4.47
2022-11-10T12:20:49.669Z,3.10
2022-11-10T12:23:50.087Z,2.45
2022-11-10T12:26:42.520Z,3.47
2022-11-10T12:29:35.468Z,3.10
2022-11-10T12:32:27.472Z,1.60
2022-11-10T12:35:18.895Z,2.80
2022-11-10T12:38:08.925Z,3.28
2022-11-10T12:41:02.674Z,1.42
2022-11-10T12:44:03.178Z,4.20
2022-11-10T12:46:54.881Z,4.28
2022-11-10T12:49:50.048Z,2.67
2022-11-10T12:52:40.227Z,2.13
2022-11-10T12:55:35.872Z,2.15
2022-11-10T12:58:24.164Z,2.70
2022-11-10T13:01:15.569Z,0.80
2022-11-10T13:04:02.794Z,3.10
2022-11-10T13:06:51.983Z,3.60
2022-11-10T13:09:42.286Z,2.00
2022-11-10T13:12:28.579Z,3.70
2022-11-10T13:15:52.964Z,2.78
2022-11-10T13:19:00.448Z,3.95
2022-11-10T13:22:10.428Z,1.90
2022-11-10T13:25:30.347Z,3.20
2022-11-10T13:28:16.641Z,5.75
2022-11-10T13:31:39.804Z,2.30
2022-11-10T13:34:35.376Z,3.65
2022-11-10T13:37:50.382Z,2.47
2022-11-10T13:40:39.348Z,3.85
2022-11-10T13:43:28.154Z,3.85
2022-11-10T13:46:15.256Z,2.50
2022-11-10T13:49:37.034Z,3.35
2022-11-10T13:52:27.685Z,3.03
2022-11-10T13:55:23.916Z,2.85
2022-11-10T13:58:18.203Z,1.77
2022-11-10T14:01:28.025Z,2.15
2022-11-10T14:04:41.507Z,3.45
2022-11-10T14:07:31.475Z,3.30
2022-11-10T14:10:20.802Z,2.10
2022-11-10T14:13:16.336Z,1.85
2022-11-10T14:16:07.965Z,2.35
2022-11-10T14:19:04.529Z,1.02
2022-11-10T14:22:03.357Z,2.42
2022-11-10T14:24:57.837Z,1.63
2022-11-10T14:27:45.526Z,1.50
2022-11-10T14:30:34.208Z,3.08
2022-11-10T14:33:21.070Z,1.38
2022-11-10T14:36:09.682Z,2.28
2022-11-10T14:38:58.462Z,3.38
2022-11-10T14:41:48.303Z,1.80
2022-11-10T14:44:35.749Z,3.10
2022-11-10T14:47:28.152Z,2.00
2022-11-10T14:50:20.754Z,2.35
2022-11-10T14:53:14.254Z,1.52
2022-11-10T14:56:03.711Z,1.65
2022-11-10T14:58:51.283Z,2.00
2022-11-10T15:01:42.227Z,3.08
2022-11-10T15:04:31.691Z,0.90
2022-11-10T15:07:18.742Z,1.88
2022-11-10T15:10:09.112Z,1.95
2022-11-10T15:13:18.356Z,4.70
2022-11-10T15:16:26.499Z,3.42
2022-11-10T15:19:25.191Z,3.75
2022-11-10T15:22:20.081Z,3.07
2022-11-10T15:25:15.999Z,3.20
2022-11-10T15:28:04.386Z,3.17
2022-11-10T15:30:57.397Z,1.65
2022-11-10T15:33:47.986Z,2.95
2022-11-10T15:36:39.418Z,2.40
2022-11-10T15:39:27.313Z,4.60
2022-11-10T15:42:16.350Z,3.90
2022-11-10T15:45:02.733Z,4.32
2022-11-10T15:47:50.603Z,3.37
2022-11-10T15:50:37.470Z,3.47
2022-11-10T15:53:27.710Z,3.88
2022-11-10T15:56:17.080Z,2.60
2022-11-10T15:59:03.254Z,3.30
2022-11-10T16:01:50.304Z,3.43
2022-11-10T16:04:38.093Z,2.50
2022-11-10T16:07:24.720Z,3.20
2022-11-10T16:10:11.679Z,3.10
2022-11-10T16:12:58.266Z,3.10
2022-11-10T16:15:45.430Z,5.57
2022-11-10T16:18:32.865Z,3.07
2022-11-10T16:21:22.588Z,3.00
2022-11-10T16:24:09.682Z,3.03
2022-11-10T16:26:56.227Z,1.87
2022-11-10T16:29:43.770Z,3.83
2022-11-10T16:32:29.860Z,1.30
2022-11-10T16:35:16.469Z,2.63
2022-11-10T16:38:14.119Z,1.80
2022-11-10T16:41:02.526Z,6.23
2022-11-10T16:43:49.445Z,3.23
2022-11-10T16:46:38.053Z,3.03
2022-11-10T16:49:31.322Z,5.90
2022-11-10T16:52:21.252Z,4.73
2022-11-10T16:55:13.763Z,6.37
2022-11-10T16:58:00.436Z,4.67
2022-11-10T17:00:48.275Z,4.30
2022-11-10T17:03:38.144Z,4.60
2022-11-10T17:06:26.577Z,2.73
2022-11-10T17:09:18.185Z,3.93
2022-11-10T17:12:06.332Z,6.17
2022-11-10T17:14:52.992Z,4.23
2022-11-10T17:17:41.005Z,3.43
2022-11-10T17:20:33.136Z,4.33
2022-11-10T17:23:22.568Z,7.37
2022-11-10T17:26:10.071Z,5.27
2022-11-10T17:28:57.781Z,7.10
2022-11-10T17:31:44.634Z,5.50
2022-11-10T17:34:30.674Z,5.27
2022-11-10T17:37:17.209Z,5.63
2022-11-10T17:40:15.512Z,4.53
2022-11-10T17:43:01.948Z,5.03
2022-11-10T17:45:50.148Z,5.43
2022-11-10T17:48:36.373Z,6.37
2022-11-10T17:51:23.661Z,6.67
2022-11-10T17:54:14.537Z,7.57
2022-11-10T17:57:00.798Z,4.80
2022-11-10T17:59:47.327Z,6.43
2022-11-10T18:02:35.047Z,6.03
2022-11-10T18:05:21.630Z,5.60
2022-11-10T18:08:08.134Z,9.53
2022-11-10T18:10:54.566Z,6.37
2022-11-10T18:13:42.293Z,7.77
2022-11-10T18:16:28.600Z,7.07
2022-11-10T18:19:16.387Z,8.97
2022-11-10T18:22:02.847Z,5.57
2022-11-10T18:24:49.265Z,9.67
2022-11-10T18:27:36.142Z,8.57
2022-11-10T18:30:22.722Z,7.73
2022-11-10T18:33:10.571Z,6.53
2022-11-10T18:36:00.789Z,11.27
2022-11-10T18:38:47.273Z,9.13
2022-11-10T18:41:52.366Z,6.00
2022-11-10T18:44:38.686Z,5.20
2022-11-10T18:47:25.162Z,10.83
2022-11-10T18:50:11.994Z,7.63
2022-11-10T18:52:59.578Z,9.67
2022-11-10T18:55:54.624Z,10.87
2022-11-10T18:58:41.388Z,11.37
2022-11-10T19:01:27.765Z,9.47
2022-11-10T19:04:14.192Z,7.60
2022-11-10T19:07:00.601Z,10.37
2022-11-10T19:09:48.383Z,15.67
2022-11-10T19:12:34.918Z,11.93
2022-11-10T19:15:21.417Z,11.27
2022-11-10T19:18:07.801Z,10.73
2022-11-10T19:20:54.499Z,8.30
2022-11-10T19:23:41.340Z,8.30
2022-11-10T19:26:29.024Z,8.63
2022-11-10T19:29:16.223Z,9.07
2022-11-10T19:32:02.780Z,8.77
2022-11-10T19:34:49.328Z,7.00
2022-11-10T19:37:37.903Z,12.67
2022-11-10T19:40:24.837Z,9.57
2022-11-10T19:43:13.058Z,9.43
2022-11-10T19:46:02.731Z,8.53
2022-11-10T19:48:49.037Z,7.73
2022-11-10T19:51:35.452Z,8.47
2022-11-10T19:54:22.154Z,8.53
2022-11-10T19:57:11.368Z,12.40
2022-11-10T21:15:39.269Z,6.10
2022-11-10T21:18:27.009Z,13.30
2022-11-10T21:21:21.012Z,13.10
2022-11-10T21:24:10.231Z,10.45
2022-11-10T21:26:56.917Z,9.27
2022-11-10T21:29:43.348Z,8.95
2022-11-10T21:32:30.018Z,9.57
2022-11-10T21:35:16.896Z,12.00
2022-11-10T21:38:04.543Z,10.35
2022-11-10T21:40:52.911Z,6.67
2022-11-10T21:43:39.676Z,6.88
2022-11-10T21:46:25.815Z,12.10
2022-11-10T21:49:12.247Z,11.80
2022-11-10T21:51:58.652Z,7.87
2022-11-10T21:54:45.075Z,9.80
2022-11-10T21:57:32.882Z,10.57
2022-11-10T22:00:19.569Z,12.70
2022-11-10T22:03:06.310Z,12.73
2022-11-10T22:05:52.803Z,13.10
2022-11-10T22:08:40.505Z,12.30
2022-11-10T22:11:44.483Z,14.85
2022-11-10T22:14:49.959Z,15.27
2022-11-10T22:17:54.073Z,13.23
2022-11-10T22:20:40.517Z,12.25
2022-11-10T22:23:45.705Z,10.60
2022-11-10T22:26:32.262Z,11.02
2022-11-10T22:29:18.894Z,14.25
2022-11-10T22:32:06.762Z,16.10
2022-11-10T22:34:53.160Z,12.25
2022-11-10T22:37:39.678Z,12.75
2022-11-10T22:40:43.730Z,11.95
2022-11-10T22:43:43.973Z,14.33
2022-11-10T22:46:30.836Z,12.15
2022-11-10T22:49:19.749Z,15.80
2022-11-10T22:52:06.372Z,9.80
2022-11-10T22:54:52.595Z,13.83
2022-11-10T22:57:39.041Z,10.80
2022-11-10T23:00:25.783Z,6.97
2022-11-10T23:03:13.607Z,10.53
2022-11-10T23:06:01.464Z,8.50
2022-11-10T23:08:47.857Z,10.10
2022-11-10T23:11:34.812Z,10.73
2022-11-10T23:14:21.400Z,11.43
2022-11-10T23:17:08.911Z,16.13
2022-11-10T23:19:57.727Z,10.25
2022-11-10T23:22:45.670Z,7.70
2022-11-10T23:25:32.143Z,9.13
2022-11-10T23:28:18.557Z,7.63
2022-11-10T23:31:06.589Z,7.20
2022-11-10T23:33:54.690Z,8.87
2022-11-10T23:36:40.815Z,10.17
2022-11-10T23:39:28.614Z,11.13
2022-11-10T23:42:15.245Z,9.20
2022-11-10T23:45:01.686Z,7.40
2022-11-10T23:47:48.989Z,11.57
2022-11-10T23:50:35.761Z,12.27
2022-11-10T23:53:22.905Z,9.87
2022-11-10T23:56:12.912Z,12.87
2022-11-10T23:58:59.330Z,13.20
